sensor_id;sensor_type;location;lat;lon;timestamp;pressure;altitude;pressure_sealevel;temperature;humidity
12172;BME280;6149;52.418;13.668;2023-04-29T00:01:47;100512.00;;;11.52;100.00
12172;BME280;6149;52.418;13.668;2023-04-29T00:04:14;100510.28;;;11.51;100.00
12172;BME280;6149;52.418;13.668;2023-04-29T00:06:43;100513.91;;;11.50;100.00
12172;BME280;6149;52.418;13.668;2023-04-29T00:09:11;100517.97;;;11.56;100.00
12172;BME280;6149;52.418;13.668;2023-04-29T00:11:38;100519.84;;;11.54;100.00
12172;BME280;6149;52.418;13.668;2023-04-29T00:14:07;100515.59;;;11.51;100.00
12172;BME280;6149;52.418;13.668;2023-04-29T00:16:33;100514.75;;;11.51;100.00
12172;BME280;6149;52.418;13.668;2023-04-29T00:19:03;100512.22;;;11.49;100.00
12172;BME280;6149;52.418;13.668;2023-04-29T00:21:29;100511.34;;;11.49;100.00
12172;BME280;6149;52.418;13.668;2023-04-29T00:23:58;100496.09;;;11.52;100.00
12172;BME280;6149;52.418;13.668;2023-04-29T00:26:25;100488.28;;;11.51;100.00
12172;BME280;6149;52.418;13.668;2023-04-29T00:28:52;100497.25;;;11.48;100.00
12172;BME280;6149;52.418;13.668;2023-04-29T00:31:21;100497.25;;;11.48;100.00
12172;BME280;6149;52.418;13.668;2023-04-29T00:33:50;100495.47;;;11.49;100.00
12172;BME280;6149;52.418;13.668;2023-04-29T00:36:17;100492.06;;;11.47;100.00
12172;BME280;6149;52.418;13.668;2023-04-29T00:38:46;100494.69;;;11.47;100.00
12172;BME280;6149;52.418;13.668;2023-04-29T00:41:15;100485.91;;;11.46;100.00
12172;BME280;6149;52.418;13.668;2023-04-29T00:43:42;100487.59;;;11.47;100.00
12172;BME280;6149;52.418;13.668;2023-04-29T00:46:11;100481.56;;;11.45;100.00
12172;BME280;6149;52.418;13.668;2023-04-29T00:48:38;100477.19;;;11.44;100.00
12172;BME280;6149;52.418;13.668;2023-04-29T00:51:07;100472.00;;;11.43;100.00
12172;BME280;6149;52.418;13.668;2023-04-29T00:53:36;100468.66;;;11.39;100.00
12172;BME280;6149;52.418;13.668;2023-04-29T00:56:03;100482.94;;;11.36;100.00
12172;BME280;6149;52.418;13.668;2023-04-29T00:58:34;100489.16;;;11.35;100.00
12172;BME280;6149;52.418;13.668;2023-04-29T01:01:03;100483.88;;;11.35;100.00
12172;BME280;6149;52.418;13.668;2023-04-29T01:03:30;100492.00;;;11.32;100.00
12172;BME280;6149;52.418;13.668;2023-04-29T01:06:07;100497.19;;;11.34;100.00
12172;BME280;6149;52.418;13.668;2023-04-29T01:08:43;100493.78;;;11.32;100.00
12172;BME280;6149;52.418;13.668;2023-04-29T01:11:22;100504.56;;;11.29;100.00
12172;BME280;6149;52.418;13.668;2023-04-29T01:14:01;100502.94;;;11.26;100.00
12172;BME280;6149;52.418;13.668;2023-04-29T01:16:33;100498.66;;;11.24;100.00
12172;BME280;6149;52.418;13.668;2023-04-29T01:19:12;100497.03;;;11.21;100.00
12172;BME280;6149;52.418;13.668;2023-04-29T01:21:46;100499.88;;;11.18;100.00
12172;BME280;6149;52.418;13.668;2023-04-29T01:24:19;100501.66;;;11.18;100.00
12172;BME280;6149;52.418;13.668;2023-04-29T01:26:53;100497.31;;;11.17;100.00
12172;BME280;6149;52.418;13.668;2023-04-29T01:29:30;100496.38;;;11.18;100.00
12172;BME280;6149;52.418;13.668;2023-04-29T01:32:04;100489.44;;;11.15;100.00
12172;BME280;6149;52.418;13.668;2023-04-29T01:34:46;100491.25;;;11.15;100.00
12172;BME280;6149;52.418;13.668;2023-04-29T01:37:20;100470.00;;;11.16;100.00
12172;BME280;6149;52.418;13.668;2023-04-29T01:39:59;100469.34;;;11.13;100.00
12172;BME280;6149;52.418;13.668;2023-04-29T01:42:38;100478.31;;;11.10;100.00
12172;BME280;6149;52.418;13.668;2023-04-29T01:45:09;100477.63;;;11.07;100.00
12172;BME280;6149;52.418;13.668;2023-04-29T01:47:37;100471.75;;;11.01;100.00
12172;BME280;6149;52.418;13.668;2023-04-29T01:50:05;100487.97;;;10.95;100.00
12172;BME280;6149;52.418;13.668;2023-04-29T01:52:32;100488.22;;;10.91;100.00
12172;BME280;6149;52.418;13.668;2023-04-29T01:55:05;100484.03;;;10.87;100.00
12172;BME280;6149;52.418;13.668;2023-04-29T01:57:32;100476.25;;;10.84;100.00
12172;BME280;6149;52.418;13.668;2023-04-29T01:59:58;100485.22;;;10.81;100.00
12172;BME280;6149;52.418;13.668;2023-04-29T02:02:26;100482.75;;;10.78;100.00
12172;BME280;6149;52.418;13.668;2023-04-29T02:04:54;100485.41;;;10.78;100.00
12172;BME280;6149;52.418;13.668;2023-04-29T02:07:22;100480.22;;;10.77;100.00
12172;BME280;6149;52.418;13.668;2023-04-29T02:09:50;100482.09;;;10.75;100.00
12172;BME280;6149;52.418;13.668;2023-04-29T02:12:23;100487.31;;;10.76;100.00
12172;BME280;6149;52.418;13.668;2023-04-29T02:14:57;100483.88;;;10.74;100.00
12172;BME280;6149;52.418;13.668;2023-04-29T02:17:25;100467.41;;;10.69;100.00
12172;BME280;6149;52.418;13.668;2023-04-29T02:19:52;100466.91;;;10.62;100.00
12172;BME280;6149;52.418;13.668;2023-04-29T02:22:21;100464.44;;;10.59;100.00
12172;BME280;6149;52.418;13.668;2023-04-29T02:24:48;100463.66;;;10.57;100.00
12172;BME280;6149;52.418;13.668;2023-04-29T02:27:18;100468.00;;;10.58;100.00
12172;BME280;6149;52.418;13.668;2023-04-29T02:29:49;100461.09;;;10.56;100.00
12172;BME280;6149;52.418;13.668;2023-04-29T02:32:20;100458.53;;;10.54;100.00
12172;BME280;6149;52.418;13.668;2023-04-29T02:34:51;100465.59;;;10.54;100.00
12172;BME280;6149;52.418;13.668;2023-04-29T02:37:18;100460.31;;;10.54;100.00
12172;BME280;6149;52.418;13.668;2023-04-29T02:39:54;100462.88;;;10.55;100.00
12172;BME280;6149;52.418;13.668;2023-04-29T02:42:22;100460.25;;;10.55;100.00
12172;BME280;6149;52.418;13.668;2023-04-29T02:44:52;100462.03;;;10.55;100.00
12172;BME280;6149;52.418;13.668;2023-04-29T02:47:19;100467.31;;;10.55;100.00
12172;BME280;6149;52.418;13.668;2023-04-29T02:49:47;100463.56;;;10.59;100.00
12172;BME280;6149;52.418;13.668;2023-04-29T02:52:15;100466.22;;;10.59;100.00
12172;BME280;6149;52.418;13.668;2023-04-29T02:54:43;100460.94;;;10.59;100.00
12172;BME280;6149;52.418;13.668;2023-04-29T02:57:11;100461.88;;;10.58;100.00
12172;BME280;6149;52.418;13.668;2023-04-29T02:59:38;100457.19;;;10.63;100.00
12172;BME280;6149;52.418;13.668;2023-04-29T03:02:07;100451.38;;;10.56;100.00
12172;BME280;6149;52.418;13.668;2023-04-29T03:04:34;100452.31;;;10.55;100.00
12172;BME280;6149;52.418;13.668;2023-04-29T03:07:01;100451.38;;;10.56;100.00
12172;BME280;6149;52.418;13.668;2023-04-29T03:09:30;100451.53;;;10.53;100.00
12172;BME280;6149;52.418;13.668;2023-04-29T03:11:57;100460.50;;;10.51;100.00
12172;BME280;6149;52.418;13.668;2023-04-29T03:14:27;100453.50;;;10.50;100.00
12172;BME280;6149;52.418;13.668;2023-04-29T03:16:53;100456.13;;;10.50;100.00
12172;BME280;6149;52.418;13.668;2023-04-29T03:19:23;100454.50;;;10.47;100.00
12172;BME280;6149;52.418;13.668;2023-04-29T03:21:51;100451.97;;;10.46;100.00
12172;BME280;6149;52.418;13.668;2023-04-29T03:24:20;100457.16;;;10.47;100.00
12172;BME280;6149;52.418;13.668;2023-04-29T03:26:47;100450.84;;;10.50;100.00
12172;BME280;6149;52.418;13.668;2023-04-29T03:29:14;100449.16;;;10.49;100.00
12172;BME280;6149;52.418;13.668;2023-04-29T03:31:40;100442.06;;;10.49;100.00
12172;BME280;6149;52.418;13.668;2023-04-29T03:34:07;100449.06;;;10.50;100.00
12172;BME280;6149;52.418;13.668;2023-04-29T03:36:39;100448.13;;;10.51;100.00
12172;BME280;6149;52.418;13.668;2023-04-29T03:39:06;100455.13;;;10.52;100.00
12172;BME280;6149;52.418;13.668;2023-04-29T03:41:32;100449.84;;;10.52;100.00
12172;BME280;6149;52.418;13.668;2023-04-29T03:44:00;100444.53;;;10.52;100.00
12172;BME280;6149;52.418;13.668;2023-04-29T03:46:27;100445.41;;;10.53;100.00
12172;BME280;6149;52.418;13.668;2023-04-29T03:48:55;100444.53;;;10.52;100.00
12172;BME280;6149;52.418;13.668;2023-04-29T03:51:24;100449.75;;;10.54;100.00
12172;BME280;6149;52.418;13.668;2023-04-29T03:53:53;100451.53;;;10.53;100.00
12172;BME280;6149;52.418;13.668;2023-04-29T03:56:24;100447.97;;;10.54;100.00
12172;BME280;6149;52.418;13.668;2023-04-29T03:58:53;100446.94;;;10.57;100.00
12172;BME280;6149;52.418;13.668;2023-04-29T04:01:21;100445.16;;;10.57;100.00
12172;BME280;6149;52.418;13.668;2023-04-29T04:03:57;100447.72;;;10.59;100.00
12172;BME280;6149;52.418;13.668;2023-04-29T04:06:28;100454.69;;;10.60;100.00
12172;BME280;6149;52.418;13.668;2023-04-29T04:08:58;100454.53;;;10.63;100.00
12172;BME280;6149;52.418;13.668;2023-04-29T04:11:25;100454.53;;;10.63;100.00
12172;BME280;6149;52.418;13.668;2023-04-29T04:13:53;100455.31;;;10.65;100.00
12172;BME280;6149;52.418;13.668;2023-04-29T04:16:21;100451.72;;;10.66;100.00
12172;BME280;6149;52.418;13.668;2023-04-29T04:18:51;100455.13;;;10.68;100.00
12172;BME280;6149;52.418;13.668;2023-04-29T04:21:21;100459.47;;;10.69;100.00
12172;BME280;6149;52.418;13.668;2023-04-29T04:23:48;100457.44;;;10.74;100.00
12172;BME280;6149;52.418;13.668;2023-04-29T04:26:18;100454.88;;;10.73;100.00
12172;BME280;6149;52.418;13.668;2023-04-29T04:28:47;100453.09;;;10.73;100.00
12172;BME280;6149;52.418;13.668;2023-04-29T04:31:15;100454.78;;;10.74;100.00
12172;BME280;6149;52.418;13.668;2023-04-29T04:33:43;100455.66;;;10.75;100.00
12172;BME280;6149;52.418;13.668;2023-04-29T04:36:10;100456.28;;;10.78;100.00
12172;BME280;6149;52.418;13.668;2023-04-29T04:38:36;100457.25;;;10.77;100.00
12172;BME280;6149;52.418;13.668;2023-04-29T04:41:05;100457.25;;;10.77;100.00
12172;BME280;6149;52.418;13.668;2023-04-29T04:43:37;100458.84;;;10.80;100.00
12172;BME280;6149;52.418;13.668;2023-04-29T04:46:12;100458.78;;;10.81;100.00
12172;BME280;6149;52.418;13.668;2023-04-29T04:48:40;100466.72;;;10.81;100.00
12172;BME280;6149;52.418;13.668;2023-04-29T04:51:07;100461.25;;;10.84;100.00
12172;BME280;6149;52.418;13.668;2023-04-29T04:53:34;100460.22;;;10.87;100.00
12172;BME280;6149;52.418;13.668;2023-04-29T04:56:01;100464.41;;;10.91;100.00
12172;BME280;6149;52.418;13.668;2023-04-29T04:58:29;100466.03;;;10.93;100.00
12172;BME280;6149;52.418;13.668;2023-04-29T05:00:58;100465.00;;;10.96;100.00
12172;BME280;6149;52.418;13.668;2023-04-29T05:03:26;100469.19;;;11.00;100.00
12172;BME280;6149;52.418;13.668;2023-04-29T05:05:55;100469.09;;;11.01;100.00
12172;BME280;6149;52.418;13.668;2023-04-29T05:08:22;100469.69;;;11.07;100.00
12172;BME280;6149;52.418;13.668;2023-04-29T05:10:53;100472.34;;;11.07;100.00
12172;BME280;6149;52.418;13.668;2023-04-29T05:13:24;100467.03;;;11.07;100.00
12172;BME280;6149;52.418;13.668;2023-04-29T05:15:54;100466.09;;;11.08;100.00
12172;BME280;6149;52.418;13.668;2023-04-29T05:18:26;100469.59;;;11.08;100.00
12172;BME280;6149;52.418;13.668;2023-04-29T05:20:54;100473.88;;;11.11;100.00
12172;BME280;6149;52.418;13.668;2023-04-29T05:23:25;100472.94;;;11.12;100.00
12172;BME280;6149;52.418;13.668;2023-04-29T05:25:53;100476.13;;;11.17;100.00
12172;BME280;6149;52.418;13.668;2023-04-29T05:28:23;100469.28;;;11.28;100.00
12172;BME280;6149;52.418;13.668;2023-04-29T05:30:51;100480.22;;;11.22;100.00
12172;BME280;6149;52.418;13.668;2023-04-29T05:33:20;100476.38;;;11.28;100.00
12172;BME280;6149;52.418;13.668;2023-04-29T05:35:52;100474.59;;;11.28;100.00
12172;BME280;6149;52.418;13.668;2023-04-29T05:38:23;100472.78;;;11.29;100.00
12172;BME280;6149;52.418;13.668;2023-04-29T05:40:55;100481.66;;;11.28;100.00
12172;BME280;6149;52.418;13.668;2023-04-29T05:43:22;100483.56;;;11.26;100.00
12172;BME280;6149;52.418;13.668;2023-04-29T05:45:48;100475.53;;;11.27;100.00
12172;BME280;6149;52.418;13.668;2023-04-29T05:48:18;100482.53;;;11.28;100.00
12172;BME280;6149;52.418;13.668;2023-04-29T05:50:47;100477.06;;;11.31;100.00
12172;BME280;6149;52.418;13.668;2023-04-29T05:53:18;100486.59;;;11.34;100.00
12172;BME280;6149;52.418;13.668;2023-04-29T05:55:46;100485.59;;;11.36;100.00
12172;BME280;6149;52.418;13.668;2023-04-29T05:58:15;100491.81;;;11.35;100.00
12172;BME280;6149;52.418;13.668;2023-04-29T06:00:42;100483.78;;;11.37;100.00
12172;BME280;6149;52.418;13.668;2023-04-29T06:03:14;100486.34;;;11.38;100.00
12172;BME280;6149;52.418;13.668;2023-04-29T06:05:41;100487.88;;;11.43;100.00
12172;BME280;6149;52.418;13.668;2023-04-29T06:08:07;100490.44;;;11.44;100.00
12172;BME280;6149;52.418;13.668;2023-04-29T06:10:36;100489.66;;;11.42;100.00
12172;BME280;6149;52.418;13.668;2023-04-29T06:13:03;100492.91;;;11.47;100.00
12172;BME280;6149;52.418;13.668;2023-04-29T06:15:30;100499.91;;;11.48;100.00
12172;BME280;6149;52.418;13.668;2023-04-29T06:17:59;100500.00;;;11.47;100.00
12172;BME280;6149;52.418;13.668;2023-04-29T06:20:26;100499.16;;;11.46;100.00
12172;BME280;6149;52.418;13.668;2023-04-29T06:22:54;100501.78;;;11.46;100.00
12172;BME280;6149;52.418;13.668;2023-04-29T06:25:21;100495.16;;;11.53;100.00
12172;BME280;6149;52.418;13.668;2023-04-29T06:27:53;100504.91;;;11.53;100.00
12172;BME280;6149;52.418;13.668;2023-04-29T06:30:21;100501.13;;;11.57;100.00
12172;BME280;6149;52.418;13.668;2023-04-29T06:32:48;100507.19;;;11.59;100.00
12172;BME280;6149;52.418;13.668;2023-04-29T06:35:18;100510.03;;;11.56;100.00
12172;BME280;6149;52.418;13.668;2023-04-29T06:37:44;100507.19;;;11.59;100.00
12172;BME280;6149;52.418;13.668;2023-04-29T06:40:12;100513.34;;;11.59;100.00
12172;BME280;6149;52.418;13.668;2023-04-29T06:42:38;100505.41;;;11.59;100.00
12172;BME280;6149;52.418;13.668;2023-04-29T06:45:07;100516.50;;;11.66;100.00
12172;BME280;6149;52.418;13.668;2023-04-29T06:47:36;100509.91;;;11.73;100.00
12172;BME280;6149;52.418;13.668;2023-04-29T06:50:04;100517.25;;;11.68;100.00
12172;BME280;6149;52.418;13.668;2023-04-29T06:52:33;100513.75;;;11.67;100.00
12172;BME280;6149;52.418;13.668;2023-04-29T06:55:01;100526.06;;;11.68;100.00
12172;BME280;6149;52.418;13.668;2023-04-29T06:57:31;100520.31;;;11.76;100.00
12172;BME280;6149;52.418;13.668;2023-04-29T06:59:59;100524.00;;;11.73;100.00
12172;BME280;6149;52.418;13.668;2023-04-29T07:02:28;100526.31;;;11.80;100.00
12172;BME280;6149;52.418;13.668;2023-04-29T07:04:55;100522.81;;;11.79;100.00
12172;BME280;6149;52.418;13.668;2023-04-29T07:07:23;100521.97;;;11.79;100.00
12172;BME280;6149;52.418;13.668;2023-04-29T07:09:54;100529.91;;;11.79;100.00
12172;BME280;6149;52.418;13.668;2023-04-29T07:12:22;100532.97;;;11.87;100.00
12172;BME280;6149;52.418;13.668;2023-04-29T07:14:49;100532.28;;;11.83;100.00
12172;BME280;6149;52.418;13.668;2023-04-29T07:17:16;100537.78;;;11.94;100.00
12172;BME280;6149;52.418;13.668;2023-04-29T07:19:44;100533.41;;;11.93;100.00
12172;BME280;6149;52.418;13.668;2023-04-29T07:22:10;100529.75;;;11.96;100.00
12172;BME280;6149;52.418;13.668;2023-04-29T07:24:38;100534.09;;;11.97;100.00
12172;BME280;6149;52.418;13.668;2023-04-29T07:27:07;100539.47;;;11.95;100.00
12172;BME280;6149;52.418;13.668;2023-04-29T07:29:33;100534.09;;;11.97;100.00
12172;BME280;6149;52.418;13.668;2023-04-29T07:32:00;100542.03;;;11.97;100.00
12172;BME280;6149;52.418;13.668;2023-04-29T07:34:27;100547.16;;;12.00;100.00
12172;BME280;6149;52.418;13.668;2023-04-29T07:36:56;100548.88;;;12.01;100.00
12172;BME280;6149;52.418;13.668;2023-04-29T07:39:24;100553.63;;;12.10;100.00
12172;BME280;6149;52.418;13.668;2023-04-29T07:41:51;100556.63;;;12.04;100.00
12172;BME280;6149;52.418;13.668;2023-04-29T07:44:20;100557.13;;;12.11;100.00
12172;BME280;6149;52.418;13.668;2023-04-29T07:46:47;100558.56;;;12.16;100.00
12172;BME280;6149;52.418;13.668;2023-04-29T07:49:14;100559.22;;;12.20;100.00
12172;BME280;6149;52.418;13.668;2023-04-29T07:51:40;100561.97;;;12.18;100.00
12172;BME280;6149;52.418;13.668;2023-04-29T07:54:09;100562.66;;;12.22;100.00
12172;BME280;6149;52.418;13.668;2023-04-29T07:56:37;100564.44;;;12.21;100.00
12172;BME280;6149;52.418;13.668;2023-04-29T07:59:04;100561.78;;;12.35;100.00
12172;BME280;6149;52.418;13.668;2023-04-29T08:01:30;100569.06;;;12.32;100.00
12172;BME280;6149;52.418;13.668;2023-04-29T08:03:59;100571.22;;;12.25;100.00
12172;BME280;6149;52.418;13.668;2023-04-29T08:06:27;100577.78;;;12.20;100.00
12172;BME280;6149;52.418;13.668;2023-04-29T08:08:54;100583.94;;;12.20;100.00
12172;BME280;6149;52.418;13.668;2023-04-29T08:11:26;100584.97;;;12.18;100.00
12172;BME280;6149;52.418;13.668;2023-04-29T08:13:55;100592.94;;;12.18;100.00
12172;BME280;6149;52.418;13.668;2023-04-29T08:16:25;100590.38;;;12.16;100.00
12172;BME280;6149;52.418;13.668;2023-04-29T08:18:54;100600.03;;;12.17;100.00
12172;BME280;6149;52.418;13.668;2023-04-29T08:21:24;100602.09;;;12.12;100.00
12172;BME280;6149;52.418;13.668;2023-04-29T08:23:53;100603.31;;;12.07;100.00
12172;BME280;6149;52.418;13.668;2023-04-29T08:26:22;100606.13;;;12.03;100.00
12172;BME280;6149;52.418;13.668;2023-04-29T08:28:53;100613.56;;;12.13;100.00
12172;BME280;6149;52.418;13.668;2023-04-29T08:31:25;100628.03;;;12.07;100.00
12172;BME280;6149;52.418;13.668;2023-04-29T08:33:53;100626.31;;;12.06;100.00
12172;BME280;6149;52.418;13.668;2023-04-29T08:36:24;100637.09;;;12.03;100.00
12172;BME280;6149;52.418;13.668;2023-04-29T08:38:54;100647.00;;;11.99;100.00
12172;BME280;6149;52.418;13.668;2023-04-29T08:41:23;100644.81;;;11.92;100.00
12172;BME280;6149;52.418;13.668;2023-04-29T08:43:53;100654.84;;;11.87;100.00
12172;BME280;6149;52.418;13.668;2023-04-29T08:46:23;100657.75;;;11.82;100.00
12172;BME280;6149;52.418;13.668;2023-04-29T08:48:53;100654.94;;;11.85;100.00
12172;BME280;6149;52.418;13.668;2023-04-29T08:51:24;100668.19;;;11.85;100.00
12172;BME280;6149;52.418;13.668;2023-04-29T08:53:55;100670.41;;;11.77;100.00
12172;BME280;6149;52.418;13.668;2023-04-29T08:56:23;100677.31;;;11.80;100.00
12172;BME280;6149;52.418;13.668;2023-04-29T08:58:57;100676.88;;;11.71;100.00
12172;BME280;6149;52.418;13.668;2023-04-29T09:01:27;100686.88;;;11.66;100.00
12172;BME280;6149;52.418;13.668;2023-04-29T09:04:03;100686.78;;;11.68;100.00
12172;BME280;6149;52.418;13.668;2023-04-29T09:06:35;100688.81;;;11.63;100.00
12172;BME280;6149;52.418;13.668;2023-04-29T09:09:02;100699.16;;;11.67;100.00
12172;BME280;6149;52.418;13.668;2023-04-29T09:11:31;100702.59;;;11.69;100.00
12172;BME280;6149;52.418;13.668;2023-04-29T09:14:01;100706.09;;;11.70;100.00
12172;BME280;6149;52.418;13.668;2023-04-29T09:16:29;100713.34;;;11.66;100.00
12172;BME280;6149;52.418;13.668;2023-04-29T09:18:57;100716.78;;;11.68;100.00
12172;BME280;6149;52.418;13.668;2023-04-29T09:21:26;100720.53;;;11.64;100.00
12172;BME280;6149;52.418;13.668;2023-04-29T09:23:57;100723.19;;;11.64;100.00
12172;BME280;6149;52.418;13.668;2023-04-29T09:26:26;100726.94;;;11.60;100.00
12172;BME280;6149;52.418;13.668;2023-04-29T09:29:06;100734.63;;;11.65;100.00
12172;BME280;6149;52.418;13.668;2023-04-29T09:31:37;100735.31;;;11.68;100.00
12172;BME280;6149;52.418;13.668;2023-04-29T09:34:04;100735.56;;;11.64;100.00
12172;BME280;6149;52.418;13.668;2023-04-29T09:36:36;100738.63;;;11.56;100.00
12172;BME280;6149;52.418;13.668;2023-04-29T09:39:04;100743.94;;;11.56;100.00
12172;BME280;6149;52.418;13.668;2023-04-29T09:41:39;100752.25;;;11.50;100.00
12172;BME280;6149;52.418;13.668;2023-04-29T09:44:12;100758.63;;;11.46;100.00
12172;BME280;6149;52.418;13.668;2023-04-29T09:46:38;100763.84;;;11.48;100.00
12172;BME280;6149;52.418;13.668;2023-04-29T09:49:22;100771.72;;;11.49;100.00
12172;BME280;6149;52.418;13.668;2023-04-29T09:51:55;100770.31;;;11.42;100.00
12172;BME280;6149;52.418;13.668;2023-04-29T09:54:26;100779.97;;;11.43;100.00
12172;BME280;6149;52.418;13.668;2023-04-29T09:56:56;100775.63;;;11.42;100.00
12172;BME280;6149;52.418;13.668;2023-04-29T09:59:28;100775.28;;;11.48;100.00
12172;BME280;6149;52.418;13.668;2023-04-29T10:01:57;100788.31;;;11.35;100.00
12172;BME280;6149;52.418;13.668;2023-04-29T10:04:25;100792.16;;;11.30;100.00
12172;BME280;6149;52.418;13.668;2023-04-29T10:06:54;100797.59;;;11.27;100.00
12172;BME280;6149;52.418;13.668;2023-04-29T10:09:23;100799.41;;;11.26;100.00
12172;BME280;6149;52.418;13.668;2023-04-29T10:11:53;100800.88;;;11.32;100.00
12172;BME280;6149;52.418;13.668;2023-04-29T10:14:23;100808.44;;;11.22;100.00
12172;BME280;6149;52.418;13.668;2023-04-29T10:17:01;100807.72;;;11.19;100.00
12172;BME280;6149;52.418;13.668;2023-04-29T10:19:33;100815.75;;;11.17;100.00
12172;BME280;6149;52.418;13.668;2023-04-29T10:22:07;100818.91;;;11.08;100.00
12172;BME280;6149;52.418;13.668;2023-04-29T10:24:38;100823.66;;;11.01;100.00
12172;BME280;6149;52.418;13.668;2023-04-29T10:27:06;100827.38;;;10.97;100.00
12172;BME280;6149;52.418;13.668;2023-04-29T10:29:35;100831.59;;;11.01;100.00
12172;BME280;6149;52.418;13.668;2023-04-29T10:32:06;100828.78;;;11.04;100.00
12172;BME280;6149;52.418;13.668;2023-04-29T10:34:35;100834.63;;;11.11;100.00
12172;BME280;6149;52.418;13.668;2023-04-29T10:37:10;100845.28;;;11.10;100.00
12172;BME280;6149;52.418;13.668;2023-04-29T10:39:44;100838.53;;;11.04;100.00
12172;BME280;6149;52.418;13.668;2023-04-29T10:42:25;100846.06;;;10.94;100.00
12172;BME280;6149;52.418;13.668;2023-04-29T10:45:19;100849.63;;;10.93;100.00
12172;BME280;6149;52.418;13.668;2023-04-29T10:48:13;100849.00;;;10.88;100.00
12172;BME280;6149;52.418;13.668;2023-04-29T10:50:59;100851.50;;;10.91;100.00
12172;BME280;6149;52.418;13.668;2023-04-29T10:53:28;100848.22;;;10.86;100.00
12172;BME280;6149;52.418;13.668;2023-04-29T10:55:58;100852.22;;;10.95;100.00
12172;BME280;6149;52.418;13.668;2023-04-29T10:58:41;100854.63;;;10.99;100.00
12172;BME280;6149;52.418;13.668;2023-04-29T11:01:44;100859.22;;;11.13;100.00
12172;BME280;6149;52.418;13.668;2023-04-29T11:04:12;100862.09;;;11.09;100.00
12172;BME280;6149;52.418;13.668;2023-04-29T11:06:46;100859.47;;;11.09;100.00
12172;BME280;6149;52.418;13.668;2023-04-29T11:09:20;100871.59;;;11.13;100.00
12172;BME280;6149;52.418;13.668;2023-04-29T11:12:01;100869.97;;;11.10;100.00
12172;BME280;6149;52.418;13.668;2023-04-29T11:14:31;100876.97;;;11.11;100.00
12172;BME280;6149;52.418;13.668;2023-04-29T11:17:04;100876.63;;;11.17;100.00
12172;BME280;6149;52.418;13.668;2023-04-29T11:19:35;100879.19;;;11.19;100.00
12172;BME280;6149;52.418;13.668;2023-04-29T11:22:23;100877.50;;;11.18;100.00
12172;BME280;6149;52.418;13.668;2023-04-29T11:24:54;100887.75;;;11.24;100.00
12172;BME280;6149;52.418;13.668;2023-04-29T11:27:27;100880.44;;;11.29;100.00
12172;BME280;6149;52.418;13.668;2023-04-29T11:29:56;100887.84;;;11.39;100.00
12172;BME280;6149;52.418;13.668;2023-04-29T11:32:30;100893.28;;;11.36;100.00
12172;BME280;6149;52.418;13.668;2023-04-29T11:35:09;100888.16;;;11.51;100.00
12172;BME280;6149;52.418;13.668;2023-04-29T11:37:38;100903.38;;;11.63;100.00
12172;BME280;6149;52.418;13.668;2023-04-29T11:40:08;100897.31;;;11.61;100.00
12172;BME280;6149;52.418;13.668;2023-04-29T11:42:40;100895.81;;;11.72;100.00
12172;BME280;6149;52.418;13.668;2023-04-29T11:45:11;100901.69;;;11.95;100.00
12172;BME280;6149;52.418;13.668;2023-04-29T11:47:43;100904.94;;;12.00;100.00
12172;BME280;6149;52.418;13.668;2023-04-29T11:50:13;100907.34;;;12.04;100.00
12172;BME280;6149;52.418;13.668;2023-04-29T11:52:41;100920.09;;;12.14;100.00
12172;BME280;6149;52.418;13.668;2023-04-29T11:55:10;100916.44;;;12.32;100.00
12172;BME280;6149;52.418;13.668;2023-04-29T11:57:40;100924.84;;;12.24;100.00
12172;BME280;6149;52.418;13.668;2023-04-29T12:00:08;100921.50;;;12.21;100.00
12172;BME280;6149;52.418;13.668;2023-04-29T12:02:37;100922.25;;;12.23;100.00
12172;BME280;6149;52.418;13.668;2023-04-29T12:05:06;100925.94;;;12.20;100.00
12172;BME280;6149;52.418;13.668;2023-04-29T12:07:38;100932.19;;;12.19;100.00
12172;BME280;6149;52.418;13.668;2023-04-29T12:10:07;100932.19;;;12.19;100.00
12172;BME280;6149;52.418;13.668;2023-04-29T12:12:36;100936.63;;;12.34;100.00
12172;BME280;6149;52.418;13.668;2023-04-29T12:15:06;100931.91;;;12.39;100.00
12172;BME280;6149;52.418;13.668;2023-04-29T12:17:34;100929.28;;;12.55;100.00
12172;BME280;6149;52.418;13.668;2023-04-29T12:20:01;100932.41;;;12.78;100.00
12172;BME280;6149;52.418;13.668;2023-04-29T12:22:31;100941.44;;;13.05;100.00
12172;BME280;6149;52.418;13.668;2023-04-29T12:25:02;100937.66;;;13.25;100.00
12172;BME280;6149;52.418;13.668;2023-04-29T12:27:29;100936.56;;;13.43;100.00
12172;BME280;6149;52.418;13.668;2023-04-29T12:29:56;100936.38;;;13.46;100.00
12172;BME280;6149;52.418;13.668;2023-04-29T12:32:24;100931.09;;;13.60;100.00
12172;BME280;6149;52.418;13.668;2023-04-29T12:34:51;100928.34;;;13.62;100.00
12172;BME280;6149;52.418;13.668;2023-04-29T12:37:21;100941.56;;;13.63;100.00
12172;BME280;6149;52.418;13.668;2023-04-29T12:39:50;100940.34;;;13.69;100.00
12172;BME280;6149;52.418;13.668;2023-04-29T12:42:18;100948.75;;;13.61;100.00
12172;BME280;6149;52.418;13.668;2023-04-29T12:44:44;100949.88;;;13.57;100.00
12172;BME280;6149;52.418;13.668;2023-04-29T12:47:12;100955.28;;;13.56;100.00
12172;BME280;6149;52.418;13.668;2023-04-29T12:49:41;100962.50;;;13.54;100.00
12172;BME280;6149;52.418;13.668;2023-04-29T12:52:08;100954.44;;;13.55;100.00
12172;BME280;6149;52.418;13.668;2023-04-29T12:54:35;100951.78;;;13.55;100.00